Hat Creek, California
Current Conditions -  °F | °C
As of 4:53 AM on Saturday 25 Oct 2014 (Local Time) from KRDD Reporting Station
Overcast Overcast  
Wind Chill: 64°   Ceiling: 3900
Heat Index: 64°   Visibility: 10mi
Dew Point: 52°   Wind: 24mph
Humidity: 65%   Direction: 160°SSE
Pressure: 29.72"   Gusts: 35mph
Location:  40.79°N, 121.51°W
Report Text: KRDD 251153Z AUTO 16021G30KT 10SM OVC039 18/11 A2972 RMK AO2 PK WND 15031/1127 SLP060 T01780111 10178 20139 58034
Loading
Personal Weather Stations






























Interactive Weather Map
Tropical Storm Tracking
New forecast layout! Learn more

10-Day Weather Forecast

Advertisements
Track Severe Weather on mobile